sensor_id;sensor_type;location;lat;lon;timestamp;pressure;altitude;pressure_sealevel;temperature;humidity
65280;BME280;51878;55.748;48.742;2023-02-28T00:00:13;98563.28;;;-5.02;100.00
65280;BME280;51878;55.748;48.742;2023-02-28T00:05:19;98582.06;;;-4.93;100.00
65280;BME280;51878;55.748;48.742;2023-02-28T00:10:28;98513.50;;;-5.45;100.00
65280;BME280;51878;55.748;48.742;2023-02-28T00:15:31;98445.56;;;-6.04;100.00
65280;BME280;51878;55.748;48.742;2023-02-28T00:20:33;98572.63;;;-5.22;100.00
65280;BME280;51878;55.748;48.742;2023-02-28T00:25:35;98395.47;;;-6.16;100.00
65280;BME280;51878;55.748;48.742;2023-02-28T00:30:37;98401.81;;;-6.32;100.00
65280;BME280;51878;55.748;48.742;2023-02-28T00:35:40;98499.41;;;-5.69;100.00
65280;BME280;51878;55.748;48.742;2023-02-28T00:40:42;98601.19;;;-5.27;100.00
65280;BME280;51878;55.748;48.742;2023-02-28T00:45:44;98488.66;;;-5.79;100.00
65280;BME280;51878;55.748;48.742;2023-02-28T00:50:49;98551.53;;;-5.60;100.00
65280;BME280;51878;55.748;48.742;2023-02-28T00:55:51;98559.28;;;-5.70;100.00
65280;BME280;51878;55.748;48.742;2023-02-28T01:00:54;98563.63;;;-5.69;100.00
65280;BME280;51878;55.748;48.742;2023-02-28T01:05:56;98517.41;;;-6.00;100.00
65280;BME280;51878;55.748;48.742;2023-02-28T01:11:11;98500.22;;;-6.18;100.00
65280;BME280;51878;55.748;48.742;2023-02-28T01:16:14;98591.78;;;-5.56;100.00
65280;BME280;51878;55.748;48.742;2023-02-28T01:21:18;98478.03;;;-6.29;100.00
65280;BME280;51878;55.748;48.742;2023-02-28T01:26:21;98563.16;;;-5.75;100.00
65280;BME280;51878;55.748;48.742;2023-02-28T01:31:24;98584.94;;;-5.59;100.00
65280;BME280;51878;55.748;48.742;2023-02-28T01:36:28;98560.09;;;-5.82;100.00
65280;BME280;51878;55.748;48.742;2023-02-28T01:41:33;98600.53;;;-5.56;100.00
65280;BME280;51878;55.748;48.742;2023-02-28T01:46:35;98569.19;;;-5.73;100.00
65280;BME280;51878;55.748;48.742;2023-02-28T01:51:42;98589.25;;;-5.58;100.00
65280;BME280;51878;55.748;48.742;2023-02-28T01:57:02;98562.25;;;-5.74;100.00
65280;BME280;51878;55.748;48.742;2023-02-28T02:02:06;98529.75;;;-6.00;100.00
65280;BME280;51878;55.748;48.742;2023-02-28T02:07:08;98561.72;;;-5.79;100.00
65280;BME280;51878;55.748;48.742;2023-02-28T02:17:51;98578.50;;;-5.81;100.00
65280;BME280;51878;55.748;48.742;2023-02-28T02:34:29;98583.75;;;-5.93;100.00
65280;BME280;51878;55.748;48.742;2023-02-28T02:39:37;98579.13;;;-6.03;100.00
65280;BME280;51878;55.748;48.742;2023-02-28T02:44:47;98574.59;;;-6.13;100.00
65280;BME280;51878;55.748;48.742;2023-02-28T02:49:52;98598.28;;;-6.26;100.00
65280;BME280;51878;55.748;48.742;2023-02-28T02:54:57;98529.63;;;-6.37;100.00
65280;BME280;51878;55.748;48.742;2023-02-28T03:00:04;98586.38;;;-6.32;100.00
65280;BME280;51878;55.748;48.742;2023-02-28T03:05:33;98583.00;;;-6.34;100.00
65280;BME280;51878;55.748;48.742;2023-02-28T03:10:40;98565.25;;;-6.45;100.00
65280;BME280;51878;55.748;48.742;2023-02-28T03:21:24;98521.41;;;-6.73;100.00
65280;BME280;51878;55.748;48.742;2023-02-28T03:26:29;98480.78;;;-6.96;100.00
65280;BME280;51878;55.748;48.742;2023-02-28T03:31:40;98502.97;;;-6.73;100.00
65280;BME280;51878;55.748;48.742;2023-02-28T03:36:47;98523.31;;;-6.75;100.00
65280;BME280;51878;55.748;48.742;2023-02-28T03:41:59;98483.88;;;-6.89;100.00
65280;BME280;51878;55.748;48.742;2023-02-28T03:47:30;98517.06;;;-6.47;100.00
65280;BME280;51878;55.748;48.742;2023-02-28T03:52:38;98529.59;;;-6.63;100.00
65280;BME280;51878;55.748;48.742;2023-02-28T04:02:52;98354.22;;;-7.60;100.00
65280;BME280;51878;55.748;48.742;2023-02-28T04:08:07;98553.53;;;-6.53;100.00
65280;BME280;51878;55.748;48.742;2023-02-28T04:13:09;98570.31;;;-6.54;100.00
65280;BME280;51878;55.748;48.742;2023-02-28T04:18:11;98464.16;;;-6.96;100.00
65280;BME280;51878;55.748;48.742;2023-02-28T04:23:13;98394.72;;;-7.35;99.82
65280;BME280;51878;55.748;48.742;2023-02-28T04:28:15;98526.31;;;-6.54;100.00
65280;BME280;51878;55.748;48.742;2023-02-28T04:33:18;98528.66;;;-6.49;100.00
65280;BME280;51878;55.748;48.742;2023-02-28T04:38:20;98460.59;;;-6.82;100.00
65280;BME280;51878;55.748;48.742;2023-02-28T04:43:22;98523.16;;;-6.46;100.00
65280;BME280;51878;55.748;48.742;2023-02-28T04:48:25;98516.59;;;-6.66;100.00
65280;BME280;51878;55.748;48.742;2023-02-28T04:53:29;98450.25;;;-6.98;100.00
65280;BME280;51878;55.748;48.742;2023-02-28T04:58:31;98346.78;;;-7.80;100.00
65280;BME280;51878;55.748;48.742;2023-02-28T05:03:34;98535.59;;;-6.61;100.00
65280;BME280;51878;55.748;48.742;2023-02-28T05:08:36;98492.63;;;-7.16;100.00
65280;BME280;51878;55.748;48.742;2023-02-28T05:13:38;98489.22;;;-6.91;100.00
65280;BME280;51878;55.748;48.742;2023-02-28T05:18:40;98504.44;;;-6.16;95.76
65280;BME280;51878;55.748;48.742;2023-02-28T05:23:42;98503.56;;;-5.91;90.71
65280;BME280;51878;55.748;48.742;2023-02-28T05:28:44;98424.88;;;-6.35;90.03
65280;BME280;51878;55.748;48.742;2023-02-28T05:33:46;98485.16;;;-5.30;87.53
65280;BME280;51878;55.748;48.742;2023-02-28T05:38:49;98477.53;;;-4.16;83.75
65280;BME280;51878;55.748;48.742;2023-02-28T05:43:52;98437.00;;;-3.93;77.27
65280;BME280;51878;55.748;48.742;2023-02-28T05:48:54;98339.28;;;-3.74;72.75
65280;BME280;51878;55.748;48.742;2023-02-28T05:54:01;98452.72;;;-2.60;68.88
65280;BME280;51878;55.748;48.742;2023-02-28T05:59:03;98392.06;;;-2.43;64.55
65280;BME280;51878;55.748;48.742;2023-02-28T06:04:07;98426.56;;;-1.92;63.08
65280;BME280;51878;55.748;48.742;2023-02-28T06:09:17;98377.03;;;-1.62;59.85
65280;BME280;51878;55.748;48.742;2023-02-28T06:14:20;98404.22;;;-1.79;61.44
65280;BME280;51878;55.748;48.742;2023-02-28T06:19:23;98381.38;;;-2.01;61.41
65280;BME280;51878;55.748;48.742;2023-02-28T06:24:27;98384.59;;;-0.31;57.00
65280;BME280;51878;55.748;48.742;2023-02-28T06:29:34;98386.69;;;0.40;54.76
65280;BME280;51878;55.748;48.742;2023-02-28T06:34:36;98311.56;;;-0.85;55.26
65280;BME280;51878;55.748;48.742;2023-02-28T06:39:38;98295.00;;;-0.59;55.55
65280;BME280;51878;55.748;48.742;2023-02-28T06:44:40;98308.13;;;-0.11;53.64
65280;BME280;51878;55.748;48.742;2023-02-28T06:49:44;98291.03;;;0.10;52.08
65280;BME280;51878;55.748;48.742;2023-02-28T06:54:46;98325.75;;;1.17;49.72
65280;BME280;51878;55.748;48.742;2023-02-28T06:59:49;98255.25;;;2.05;46.70
65280;BME280;51878;55.748;48.742;2023-02-28T07:04:51;98185.81;;;1.62;45.44
65280;BME280;51878;55.748;48.742;2023-02-28T07:09:53;98219.22;;;1.67;45.87
65280;BME280;51878;55.748;48.742;2023-02-28T07:14:55;98139.81;;;1.93;42.69
65280;BME280;51878;55.748;48.742;2023-02-28T07:19:57;98154.75;;;1.19;44.20
65280;BME280;51878;55.748;48.742;2023-02-28T07:25:02;98237.84;;;1.93;43.25
65280;BME280;51878;55.748;48.742;2023-02-28T07:30:04;98283.06;;;1.78;44.30
65280;BME280;51878;55.748;48.742;2023-02-28T07:35:10;98270.19;;;2.24;43.13
65280;BME280;51878;55.748;48.742;2023-02-28T07:40:17;98185.66;;;2.56;41.36
65280;BME280;51878;55.748;48.742;2023-02-28T07:45:19;98221.34;;;3.53;39.85
65280;BME280;51878;55.748;48.742;2023-02-28T07:50:21;98180.56;;;3.26;39.84
65280;BME280;51878;55.748;48.742;2023-02-28T07:55:24;98200.56;;;3.55;40.21
65280;BME280;51878;55.748;48.742;2023-02-28T08:00:27;98194.69;;;2.87;41.42
65280;BME280;51878;55.748;48.742;2023-02-28T08:05:30;98015.44;;;2.63;41.38
65280;BME280;51878;55.748;48.742;2023-02-28T08:10:33;98166.03;;;4.46;38.30
65280;BME280;51878;55.748;48.742;2023-02-28T08:15:35;98084.66;;;2.66;40.27
65280;BME280;51878;55.748;48.742;2023-02-28T08:20:40;98144.66;;;1.98;41.27
65280;BME280;51878;55.748;48.742;2023-02-28T08:25:43;98086.34;;;1.69;42.74
65280;BME280;51878;55.748;48.742;2023-02-28T08:30:45;98146.09;;;0.65;44.79
65280;BME280;51878;55.748;48.742;2023-02-28T08:35:47;98092.25;;;0.17;44.71
65280;BME280;51878;55.748;48.742;2023-02-28T08:40:49;98129.25;;;1.24;43.54
65280;BME280;51878;55.748;48.742;2023-02-28T08:45:52;98048.31;;;1.16;44.64
65280;BME280;51878;55.748;48.742;2023-02-28T08:50:56;98022.22;;;0.59;44.38
65280;BME280;51878;55.748;48.742;2023-02-28T08:56:15;98034.09;;;0.38;47.39
65280;BME280;51878;55.748;48.742;2023-02-28T09:01:23;97955.78;;;-1.01;48.45
65280;BME280;51878;55.748;48.742;2023-02-28T09:06:26;98011.03;;;-0.41;48.86
65280;BME280;51878;55.748;48.742;2023-02-28T09:11:29;97856.63;;;-0.15;46.46
65280;BME280;51878;55.748;48.742;2023-02-28T09:16:32;97990.34;;;0.92;45.58
65280;BME280;51878;55.748;48.742;2023-02-28T09:21:37;97846.34;;;0.41;44.83
65280;BME280;51878;55.748;48.742;2023-02-28T09:26:39;97954.22;;;-0.50;49.05
65280;BME280;51878;55.748;48.742;2023-02-28T09:31:47;97845.19;;;-1.39;50.82
65280;BME280;51878;55.748;48.742;2023-02-28T09:36:50;97952.06;;;-1.36;52.34
65280;BME280;51878;55.748;48.742;2023-02-28T09:41:56;97881.69;;;0.01;48.73
65280;BME280;51878;55.748;48.742;2023-02-28T09:47:05;97904.06;;;0.16;49.20
65280;BME280;51878;55.748;48.742;2023-02-28T09:52:16;97921.31;;;-0.67;51.20
65280;BME280;51878;55.748;48.742;2023-02-28T09:57:38;97915.63;;;0.83;48.15
65280;BME280;51878;55.748;48.742;2023-02-28T10:08:10;97832.88;;;0.43;48.19
65280;BME280;51878;55.748;48.742;2023-02-28T10:13:35;97827.97;;;-0.21;49.41
65280;BME280;51878;55.748;48.742;2023-02-28T10:18:45;97820.03;;;-0.13;50.38
65280;BME280;51878;55.748;48.742;2023-02-28T10:23:48;97780.97;;;-0.91;52.13
65280;BME280;51878;55.748;48.742;2023-02-28T10:28:53;97821.56;;;1.55;47.83
65280;BME280;51878;55.748;48.742;2023-02-28T10:33:55;97779.22;;;1.28;47.39
65280;BME280;51878;55.748;48.742;2023-02-28T10:38:57;97834.84;;;0.32;48.09
65280;BME280;51878;55.748;48.742;2023-02-28T10:44:20;97800.09;;;0.67;48.89
65280;BME280;51878;55.748;48.742;2023-02-28T10:49:27;97709.69;;;-0.02;49.62
65280;BME280;51878;55.748;48.742;2023-02-28T10:54:34;97790.16;;;0.26;49.72
65280;BME280;51878;55.748;48.742;2023-02-28T10:59:39;97667.94;;;-0.52;50.35
65280;BME280;51878;55.748;48.742;2023-02-28T11:04:41;97702.94;;;-0.73;50.82
65280;BME280;51878;55.748;48.742;2023-02-28T11:09:51;97772.50;;;-0.86;51.42
65280;BME280;51878;55.748;48.742;2023-02-28T11:14:58;97725.31;;;-0.84;52.72
65280;BME280;51878;55.748;48.742;2023-02-28T11:20:05;97738.50;;;-1.27;52.01
65280;BME280;51878;55.748;48.742;2023-02-28T11:25:16;97709.75;;;-1.49;54.19
65280;BME280;51878;55.748;48.742;2023-02-28T11:30:35;97698.59;;;-1.53;55.89
65280;BME280;51878;55.748;48.742;2023-02-28T11:35:38;97704.75;;;-1.70;55.68
65280;BME280;51878;55.748;48.742;2023-02-28T11:51:33;97627.25;;;-2.73;59.41
65280;BME280;51878;55.748;48.742;2023-02-28T11:56:39;97492.69;;;-3.62;60.40
65280;BME280;51878;55.748;48.742;2023-02-28T12:07:03;97679.63;;;-2.30;62.76
65280;BME280;51878;55.748;48.742;2023-02-28T12:12:38;97685.81;;;-2.39;62.78
65280;BME280;51878;55.748;48.742;2023-02-28T12:28:46;97635.16;;;-2.45;63.66
65280;BME280;51878;55.748;48.742;2023-02-28T12:33:53;97603.66;;;-2.48;63.62
65280;BME280;51878;55.748;48.742;2023-02-28T12:39:00;97547.16;;;-2.77;63.79
65280;BME280;51878;55.748;48.742;2023-02-28T12:44:08;97530.72;;;-2.80;64.55
65280;BME280;51878;55.748;48.742;2023-02-28T12:49:17;97541.72;;;-2.75;64.94
65280;BME280;51878;55.748;48.742;2023-02-28T12:54:32;97595.75;;;-2.58;66.12
65280;BME280;51878;55.748;48.742;2023-02-28T13:10:50;97602.19;;;-2.61;69.67
65280;BME280;51878;55.748;48.742;2023-02-28T13:16:16;97594.91;;;-2.59;70.59
65280;BME280;51878;55.748;48.742;2023-02-28T13:21:28;97487.00;;;-3.12;69.25
65280;BME280;51878;55.748;48.742;2023-02-28T13:31:34;97578.38;;;-2.88;69.21
65280;BME280;51878;55.748;48.742;2023-02-28T13:47:39;97543.03;;;-2.89;68.91
65280;BME280;51878;55.748;48.742;2023-02-28T13:52:59;97445.38;;;-3.47;67.41
65280;BME280;51878;55.748;48.742;2023-02-28T14:08:22;97510.25;;;-3.06;68.54
65280;BME280;51878;55.748;48.742;2023-02-28T14:13:43;97522.94;;;-3.09;69.23
65280;BME280;51878;55.748;48.742;2023-02-28T14:40:34;97527.97;;;-3.34;74.56
65280;BME280;51878;55.748;48.742;2023-02-28T14:45:37;97528.06;;;-3.54;76.21
65280;BME280;51878;55.748;48.742;2023-02-28T14:50:39;97491.91;;;-3.72;77.61
65280;BME280;51878;55.748;48.742;2023-02-28T14:55:44;97524.91;;;-3.67;79.72
65280;BME280;51878;55.748;48.742;2023-02-28T15:00:50;97495.34;;;-3.62;81.62
65280;BME280;51878;55.748;48.742;2023-02-28T15:05:57;97550.69;;;-3.69;82.49
65280;BME280;51878;55.748;48.742;2023-02-28T15:16:15;97514.78;;;-3.81;84.84
65280;BME280;51878;55.748;48.742;2023-02-28T15:21:23;97511.03;;;-3.88;86.80
65280;BME280;51878;55.748;48.742;2023-02-28T15:26:30;97528.44;;;-3.86;88.19
65280;BME280;51878;55.748;48.742;2023-02-28T15:31:40;97542.25;;;-3.92;88.78
65280;BME280;51878;55.748;48.742;2023-02-28T15:36:57;97501.44;;;-3.99;88.54
65280;BME280;51878;55.748;48.742;2023-02-28T15:42:19;97456.69;;;-4.20;88.93
65280;BME280;51878;55.748;48.742;2023-02-28T15:47:24;97463.19;;;-4.05;89.89
65280;BME280;51878;55.748;48.742;2023-02-28T15:52:41;97491.13;;;-3.92;89.96
65280;BME280;51878;55.748;48.742;2023-02-28T15:57:44;97436.34;;;-4.20;92.44
65280;BME280;51878;55.748;48.742;2023-02-28T16:02:47;97359.84;;;-4.88;94.68
65280;BME280;51878;55.748;48.742;2023-02-28T16:07:50;97476.59;;;-4.16;98.14
65280;BME280;51878;55.748;48.742;2023-02-28T16:12:54;97437.56;;;-4.61;100.00
65280;BME280;51878;55.748;48.742;2023-02-28T16:17:57;97426.56;;;-4.66;100.00
65280;BME280;51878;55.748;48.742;2023-02-28T16:22:59;97459.97;;;-4.55;100.00
65280;BME280;51878;55.748;48.742;2023-02-28T16:28:09;97387.13;;;-5.07;100.00
65280;BME280;51878;55.748;48.742;2023-02-28T16:33:14;97419.53;;;-5.05;100.00
65280;BME280;51878;55.748;48.742;2023-02-28T16:38:16;97462.91;;;-4.78;100.00
65280;BME280;51878;55.748;48.742;2023-02-28T16:43:20;97455.38;;;-4.73;100.00
65280;BME280;51878;55.748;48.742;2023-02-28T16:48:24;97386.69;;;-5.12;100.00
65280;BME280;51878;55.748;48.742;2023-02-28T16:53:26;97445.94;;;-4.75;100.00
65280;BME280;51878;55.748;48.742;2023-02-28T16:58:32;97448.41;;;-4.64;100.00
65280;BME280;51878;55.748;48.742;2023-02-28T17:03:37;97384.91;;;-5.11;100.00
65280;BME280;51878;55.748;48.742;2023-02-28T17:08:39;97424.22;;;-4.79;100.00
65280;BME280;51878;55.748;48.742;2023-02-28T17:13:41;97438.44;;;-4.80;100.00
65280;BME280;51878;55.748;48.742;2023-02-28T17:18:43;97437.00;;;-4.74;100.00
65280;BME280;51878;55.748;48.742;2023-02-28T17:23:45;97389.19;;;-5.01;100.00
65280;BME280;51878;55.748;48.742;2023-02-28T17:28:48;97362.38;;;-5.15;100.00
65280;BME280;51878;55.748;48.742;2023-02-28T17:33:51;97322.78;;;-5.35;100.00
65280;BME280;51878;55.748;48.742;2023-02-28T17:38:54;97258.31;;;-5.71;100.00
65280;BME280;51878;55.748;48.742;2023-02-28T17:44:00;97342.63;;;-5.21;100.00
65280;BME280;51878;55.748;48.742;2023-02-28T17:49:02;97374.75;;;-5.06;100.00
65280;BME280;51878;55.748;48.742;2023-02-28T17:54:05;97312.09;;;-5.43;100.00
65280;BME280;51878;55.748;48.742;2023-02-28T17:59:09;97344.31;;;-5.20;100.00
65280;BME280;51878;55.748;48.742;2023-02-28T18:04:41;97381.41;;;-4.92;100.00
65280;BME280;51878;55.748;48.742;2023-02-28T18:10:10;97227.34;;;-5.89;100.00
65280;BME280;51878;55.748;48.742;2023-02-28T18:15:15;97331.38;;;-5.23;100.00
65280;BME280;51878;55.748;48.742;2023-02-28T18:20:17;97264.59;;;-5.72;100.00
65280;BME280;51878;55.748;48.742;2023-02-28T18:25:20;97299.72;;;-5.33;100.00
65280;BME280;51878;55.748;48.742;2023-02-28T18:30:31;97299.56;;;-5.31;100.00
65280;BME280;51878;55.748;48.742;2023-02-28T18:35:34;97388.47;;;-4.83;100.00
65280;BME280;51878;55.748;48.742;2023-02-28T18:40:36;97307.91;;;-5.26;100.00
65280;BME280;51878;55.748;48.742;2023-02-28T18:45:39;97266.94;;;-5.50;100.00
65280;BME280;51878;55.748;48.742;2023-02-28T18:50:41;97328.06;;;-5.15;100.00
65280;BME280;51878;55.748;48.742;2023-02-28T18:55:43;97260.41;;;-5.46;100.00
65280;BME280;51878;55.748;48.742;2023-02-28T19:00:46;97266.22;;;-5.32;100.00
65280;BME280;51878;55.748;48.742;2023-02-28T19:05:53;97323.84;;;-4.89;100.00
65280;BME280;51878;55.748;48.742;2023-02-28T19:10:55;97339.25;;;-4.84;100.00
65280;BME280;51878;55.748;48.742;2023-02-28T19:16:01;97307.72;;;-4.95;100.00
65280;BME280;51878;55.748;48.742;2023-02-28T19:21:08;97313.41;;;-4.90;100.00
65280;BME280;51878;55.748;48.742;2023-02-28T19:26:16;97299.22;;;-4.89;100.00
65280;BME280;51878;55.748;48.742;2023-02-28T19:31:21;97101.94;;;-6.11;100.00
65280;BME280;51878;55.748;48.742;2023-02-28T19:36:23;97235.38;;;-5.42;100.00
65280;BME280;51878;55.748;48.742;2023-02-28T19:41:25;97164.88;;;-5.78;100.00
65280;BME280;51878;55.748;48.742;2023-02-28T19:46:27;97280.47;;;-5.06;100.00
65280;BME280;51878;55.748;48.742;2023-02-28T19:51:30;97230.34;;;-5.25;100.00
65280;BME280;51878;55.748;48.742;2023-02-28T19:56:32;97214.81;;;-5.38;100.00
65280;BME280;51878;55.748;48.742;2023-02-28T20:01:34;97270.31;;;-5.01;100.00
65280;BME280;51878;55.748;48.742;2023-02-28T20:06:37;97076.69;;;-6.13;100.00
65280;BME280;51878;55.748;48.742;2023-02-28T20:11:43;97261.13;;;-4.96;100.00
65280;BME280;51878;55.748;48.742;2023-02-28T20:16:46;97251.25;;;-4.94;100.00
65280;BME280;51878;55.748;48.742;2023-02-28T20:21:48;97224.72;;;-5.03;100.00
65280;BME280;51878;55.748;48.742;2023-02-28T20:26:51;97174.19;;;-5.27;100.00
65280;BME280;51878;55.748;48.742;2023-02-28T20:31:54;97233.56;;;-4.84;100.00
65280;BME280;51878;55.748;48.742;2023-02-28T20:36:56;97167.38;;;-5.20;100.00
65280;BME280;51878;55.748;48.742;2023-02-28T20:41:59;97216.63;;;-4.91;100.00
65280;BME280;51878;55.748;48.742;2023-02-28T20:47:01;97097.78;;;-5.66;100.00
65280;BME280;51878;55.748;48.742;2023-02-28T20:52:04;97198.97;;;-4.91;100.00
65280;BME280;51878;55.748;48.742;2023-02-28T20:57:06;97206.84;;;-4.81;100.00
65280;BME280;51878;55.748;48.742;2023-02-28T21:02:10;97177.72;;;-4.99;100.00
65280;BME280;51878;55.748;48.742;2023-02-28T21:07:15;97151.19;;;-5.07;100.00
65280;BME280;51878;55.748;48.742;2023-02-28T21:12:17;97148.47;;;-5.15;100.00
65280;BME280;51878;55.748;48.742;2023-02-28T21:17:19;97142.75;;;-5.11;100.00
65280;BME280;51878;55.748;48.742;2023-02-28T21:22:21;97212.09;;;-4.71;100.00
65280;BME280;51878;55.748;48.742;2023-02-28T21:27:23;97213.31;;;-4.66;100.00
65280;BME280;51878;55.748;48.742;2023-02-28T21:32:25;97143.81;;;-5.04;100.00
65280;BME280;51878;55.748;48.742;2023-02-28T21:37:27;97205.09;;;-4.63;100.00
65280;BME280;51878;55.748;48.742;2023-02-28T21:42:29;97132.25;;;-5.03;100.00
65280;BME280;51878;55.748;48.742;2023-02-28T21:47:31;97142.09;;;-4.95;100.00
65280;BME280;51878;55.748;48.742;2023-02-28T21:52:34;97162.00;;;-4.73;100.00
65280;BME280;51878;55.748;48.742;2023-02-28T21:57:36;97186.97;;;-4.58;100.00
65280;BME280;51878;55.748;48.742;2023-02-28T22:02:41;97117.19;;;-4.92;100.00
65280;BME280;51878;55.748;48.742;2023-02-28T22:08:10;97148.66;;;-4.71;100.00
65280;BME280;51878;55.748;48.742;2023-02-28T22:13:13;97175.25;;;-4.55;100.00
65280;BME280;51878;55.748;48.742;2023-02-28T22:18:15;97175.13;;;-4.53;100.00
65280;BME280;51878;55.748;48.742;2023-02-28T22:23:17;97153.44;;;-4.57;100.00
65280;BME280;51878;55.748;48.742;2023-02-28T22:28:20;97105.34;;;-4.88;100.00
65280;BME280;51878;55.748;48.742;2023-02-28T22:33:23;97175.22;;;-4.45;100.00
65280;BME280;51878;55.748;48.742;2023-02-28T22:38:27;97131.09;;;-4.63;100.00
65280;BME280;51878;55.748;48.742;2023-02-28T22:43:30;97074.94;;;-4.92;100.00
65280;BME280;51878;55.748;48.742;2023-02-28T22:48:34;97134.19;;;-4.49;100.00
65280;BME280;51878;55.748;48.742;2023-02-28T22:53:37;97140.09;;;-4.38;100.00
65280;BME280;51878;55.748;48.742;2023-02-28T22:58:40;97101.47;;;-4.66;100.00
65280;BME280;51878;55.748;48.742;2023-02-28T23:03:43;97100.06;;;-4.61;100.00
65280;BME280;51878;55.748;48.742;2023-02-28T23:08:46;97110.41;;;-4.49;100.00
65280;BME280;51878;55.748;48.742;2023-02-28T23:13:49;97084.09;;;-4.69;100.00
65280;BME280;51878;55.748;48.742;2023-02-28T23:19:03;97030.47;;;-4.97;100.00
65280;BME280;51878;55.748;48.742;2023-02-28T23:24:08;97086.66;;;-4.59;100.00
65280;BME280;51878;55.748;48.742;2023-02-28T23:29:13;97063.47;;;-4.65;100.00
65280;BME280;51878;55.748;48.742;2023-02-28T23:34:17;97065.22;;;-4.56;100.00
65280;BME280;51878;55.748;48.742;2023-02-28T23:39:28;97005.03;;;-4.98;100.00
65280;BME280;51878;55.748;48.742;2023-02-28T23:44:31;97018.31;;;-4.90;100.00
65280;BME280;51878;55.748;48.742;2023-02-28T23:49:33;96944.94;;;-5.32;100.00
65280;BME280;51878;55.748;48.742;2023-02-28T23:54:35;97040.31;;;-4.71;100.00
65280;BME280;51878;55.748;48.742;2023-02-28T23:59:37;96996.56;;;-5.02;100.00
